Weather at Sheardale airstrip

Public forecast

Using degrees Celsius for public forecast. Weather courtesy of forecast.io.

Closest aviation weather report (METAR) to Sheardale airstrip

Closest report is Edinburgh Airport, 15.9 nm (29.4 km) SE.

2024/05/30 19:20 (retrieved 33 minutes ago)

EGPH 301920Z 36004KT 280V050 9999 FEW043 16/08 Q1017

Closest aviation forecast (TAF) to Sheardale airstrip

Closest forecast is Edinburgh Airport, 15.9 nm (29.4 km) SE.

2024/05/30 18:00 (retrieved 2 hours ago)

TAF EGPH 301657Z 3018/3118 34004KT 9999 SCT040 BECMG 3113/3116 04010KT